createdAt,value
2023-03-10T00:00:01.157Z,994.22
2023-03-10T00:01:01.273Z,994.14
2023-03-10T00:02:01.148Z,994.19
2023-03-10T00:03:01.066Z,994.13
2023-03-10T00:04:01.171Z,994.18
2023-03-10T00:05:01.071Z,994.18
2023-03-10T00:06:00.527Z,994.17
2023-03-10T00:07:00.190Z,994.21
2023-03-10T00:08:00.141Z,994.23
2023-03-10T00:08:59.971Z,994.27
2023-03-10T00:09:59.578Z,994.27
2023-03-10T00:11:02.170Z,994.34
2023-03-10T00:12:01.127Z,994.32
2023-03-10T00:13:01.133Z,994.37
2023-03-10T00:14:01.152Z,994.31
2023-03-10T00:15:01.129Z,994.32
2023-03-10T00:16:01.302Z,994.28
2023-03-10T00:17:02.493Z,994.22
2023-03-10T00:18:02.113Z,994.2
2023-03-10T00:19:01.737Z,994.15
2023-03-10T00:20:02.416Z,994.13
2023-03-10T00:21:01.485Z,994.04
2023-03-10T00:22:01.070Z,994.03
2023-03-10T00:23:01.089Z,994.02
2023-03-10T00:24:01.099Z,994.04
2023-03-10T00:25:01.105Z,993.99
2023-03-10T00:26:01.479Z,993.94
2023-03-10T00:27:01.115Z,993.93
2023-03-10T00:28:01.127Z,993.9
2023-03-10T00:29:01.124Z,993.92
2023-03-10T00:30:01.130Z,993.86
2023-03-10T00:31:01.568Z,993.87
2023-03-10T00:32:01.778Z,993.82
2023-03-10T00:33:01.533Z,993.82
2023-03-10T00:34:01.158Z,993.82
2023-03-10T00:35:01.167Z,993.82
2023-03-10T00:36:01.466Z,993.85
2023-03-10T00:37:01.075Z,993.8
2023-03-10T00:38:01.092Z,993.84
2023-03-10T00:39:01.318Z,993.8
2023-03-10T00:40:01.324Z,993.76
2023-03-10T00:41:02.469Z,993.7
2023-03-10T00:42:01.113Z,993.64
2023-03-10T00:43:01.065Z,993.63
2023-03-10T00:44:01.125Z,993.63
2023-03-10T00:45:01.142Z,993.6
2023-03-10T00:46:01.270Z,993.61
2023-03-10T00:47:01.590Z,993.55
2023-03-10T00:48:01.404Z,993.5
2023-03-10T00:49:01.431Z,993.46
2023-03-10T00:50:02.161Z,993.38
2023-03-10T00:51:02.300Z,993.4
2023-03-10T00:52:01.986Z,993.41
2023-03-10T00:53:03.078Z,993.38
2023-03-10T00:54:01.300Z,993.37
2023-03-10T00:55:01.068Z,993.35
2023-03-10T00:56:01.446Z,993.31
2023-03-10T00:57:02.469Z,993.26
2023-03-10T00:58:01.428Z,993.26
2023-03-10T00:59:04.471Z,993.23
2023-03-10T01:00:02.091Z,993.23
2023-03-10T01:01:01.133Z,993.19
2023-03-10T01:02:02.610Z,993.14
2023-03-10T01:03:01.245Z,993.04
2023-03-10T01:04:01.509Z,993.05
2023-03-10T01:05:01.762Z,993.03
2023-03-10T01:06:04.113Z,992.95
2023-03-10T01:07:01.157Z,992.95
2023-03-10T01:08:01.799Z,992.87
2023-03-10T01:09:01.211Z,992.87
2023-03-10T01:10:00.853Z,992.82
2023-03-10T01:11:06.152Z,992.82
2023-03-10T01:12:01.220Z,992.74
2023-03-10T01:13:01.132Z,992.78
2023-03-10T01:14:01.092Z,992.76
2023-03-10T01:15:01.128Z,992.73
2023-03-10T01:16:08.862Z,992.76
2023-03-10T01:17:01.094Z,992.74
2023-03-10T01:18:01.144Z,992.72
2023-03-10T01:19:01.130Z,992.7
2023-03-10T01:20:01.134Z,992.62
2023-03-10T01:21:12.918Z,992.62
2023-03-10T01:22:01.150Z,992.61
2023-03-10T01:23:00.608Z,992.63
2023-03-10T01:24:00.356Z,992.55
2023-03-10T01:25:00.169Z,992.55
2023-03-10T01:26:13.650Z,992.53
2023-03-10T01:27:01.092Z,992.48
2023-03-10T01:28:01.114Z,992.47
2023-03-10T01:29:01.093Z,992.46
2023-03-10T01:30:01.528Z,992.42
2023-03-10T01:31:01.270Z,992.44
2023-03-10T01:32:01.106Z,992.42
2023-03-10T01:33:01.129Z,992.38
2023-03-10T01:34:01.056Z,992.4
2023-03-10T01:35:01.071Z,992.36
2023-03-10T01:36:01.152Z,992.35
2023-03-10T01:37:01.143Z,992.29
2023-03-10T01:38:01.171Z,992.26
2023-03-10T01:39:01.191Z,992.18
2023-03-10T01:40:01.170Z,992.17
2023-03-10T01:41:01.793Z,992.14
2023-03-10T01:42:01.976Z,992.13
2023-03-10T01:43:02.135Z,992.1
2023-03-10T01:44:01.470Z,992.05
2023-03-10T01:45:01.088Z,992.01
2023-03-10T01:46:01.091Z,991.98
2023-03-10T01:47:01.167Z,991.98
2023-03-10T01:48:01.109Z,991.98
2023-03-10T01:49:01.116Z,991.95
2023-03-10T01:50:01.878Z,991.99
2023-03-10T01:51:01.139Z,991.94
2023-03-10T01:52:02.042Z,991.89
2023-03-10T01:53:01.155Z,991.88
2023-03-10T01:54:01.138Z,991.92
2023-03-10T01:55:01.147Z,991.89
2023-03-10T01:56:01.161Z,991.85
2023-03-10T01:57:01.161Z,991.83
2023-03-10T01:58:01.820Z,991.82
2023-03-10T01:59:01.069Z,991.79
2023-03-10T02:00:01.710Z,991.76
2023-03-10T02:01:01.269Z,991.74
2023-03-10T02:02:01.172Z,991.7
2023-03-10T02:03:02.138Z,991.7
2023-03-10T02:04:01.863Z,991.68
2023-03-10T02:05:01.106Z,991.65
2023-03-10T02:06:01.179Z,991.65
2023-03-10T02:07:01.952Z,991.63
2023-03-10T02:08:01.132Z,991.62
2023-03-10T02:09:01.055Z,991.58
2023-03-10T02:10:01.144Z,991.56
2023-03-10T02:11:01.137Z,991.52
2023-03-10T02:12:01.963Z,991.48
2023-03-10T02:13:01.982Z,991.48
2023-03-10T02:14:02.639Z,991.45
2023-03-10T02:15:01.388Z,991.45
2023-03-10T02:16:01.145Z,991.46
2023-03-10T02:17:01.890Z,991.47
2023-03-10T02:18:03.916Z,991.44
2023-03-10T02:19:01.133Z,991.39
2023-03-10T02:20:01.111Z,991.37
2023-03-10T02:21:01.864Z,991.32
2023-03-10T02:22:02.034Z,991.33
2023-03-10T02:23:01.543Z,991.31
2023-03-10T02:24:01.980Z,991.27
2023-03-10T02:25:01.431Z,991.27
2023-03-10T02:26:03.079Z,991.28
2023-03-10T02:27:01.158Z,991.25
2023-03-10T02:28:01.197Z,991.23
2023-03-10T02:29:01.973Z,991.19
2023-03-10T02:30:01.384Z,991.15
2023-03-10T02:31:01.453Z,991.1
2023-03-10T02:32:01.096Z,991.11
2023-03-10T02:33:01.079Z,991.1
2023-03-10T02:34:01.098Z,991.09
2023-03-10T02:35:01.181Z,991.05
2023-03-10T02:36:01.170Z,991.04
2023-03-10T02:37:01.512Z,991.07
2023-03-10T02:38:01.114Z,990.99
2023-03-10T02:39:01.132Z,991
2023-03-10T02:40:01.125Z,990.98
2023-03-10T02:41:01.146Z,990.94
2023-03-10T02:42:01.153Z,990.96
2023-03-10T02:43:01.453Z,990.93
2023-03-10T02:44:01.564Z,990.92
2023-03-10T02:45:02.613Z,990.84
2023-03-10T02:46:01.319Z,990.81
2023-03-10T02:47:03.059Z,990.85
2023-03-10T02:48:02.085Z,990.79
2023-03-10T02:49:01.761Z,990.76
2023-03-10T02:50:01.778Z,990.74
2023-03-10T02:51:01.484Z,990.73
2023-03-10T02:52:05.535Z,990.73
2023-03-10T02:53:01.232Z,990.69
2023-03-10T02:54:16.499Z,990.69
2023-03-10T02:55:01.903Z,990.69
2023-03-10T02:56:01.118Z,990.69
2023-03-10T02:57:08.608Z,990.63
2023-03-10T02:58:01.129Z,990.59
2023-03-10T02:59:02.403Z,990.57
2023-03-10T03:00:01.580Z,990.5
2023-03-10T03:01:01.507Z,990.55
2023-03-10T03:02:11.913Z,990.51
2023-03-10T03:03:01.302Z,990.52
2023-03-10T03:04:01.111Z,990.46
2023-03-10T03:05:01.073Z,990.43
2023-03-10T03:06:01.081Z,990.39
2023-03-10T03:07:15.503Z,990.32
2023-03-10T03:08:01.499Z,990.28
2023-03-10T03:09:01.242Z,990.28
2023-03-10T03:10:01.051Z,990.3
2023-03-10T03:11:01.116Z,990.24
2023-03-10T03:12:01.119Z,990.26
2023-03-10T03:13:01.047Z,990.23
2023-03-10T03:14:01.139Z,990.23
2023-03-10T03:15:01.070Z,990.19
2023-03-10T03:16:01.163Z,990.16
2023-03-10T03:17:01.251Z,990.19
2023-03-10T03:18:02.190Z,990.17
2023-03-10T03:19:02.152Z,990.18
2023-03-10T03:20:01.878Z,990.15
2023-03-10T03:21:01.784Z,990.16
2023-03-10T03:22:01.101Z,990.16
2023-03-10T03:23:01.102Z,990.15
2023-03-10T03:24:01.483Z,990.14
2023-03-10T03:25:01.093Z,990.16
2023-03-10T03:26:01.113Z,990.13
2023-03-10T03:27:01.110Z,990.12
2023-03-10T03:28:01.120Z,990.14
2023-03-10T03:29:00.813Z,990.07
2023-03-10T03:30:00.473Z,990.06
2023-03-10T03:31:00.217Z,990.09
2023-03-10T03:32:00.261Z,990.04
2023-03-10T03:33:00.006Z,990.03
2023-03-10T03:34:00.369Z,990.03
2023-03-10T03:35:00.026Z,990.04
2023-03-10T03:35:59.780Z,990
2023-03-10T03:37:02.487Z,990
2023-03-10T03:38:01.374Z,989.98
2023-03-10T03:39:02.061Z,989.97
2023-03-10T03:40:02.165Z,989.97
2023-03-10T03:41:01.093Z,989.89
2023-03-10T03:42:01.734Z,989.92
2023-03-10T03:43:01.108Z,989.9
2023-03-10T03:44:01.029Z,989.9
2023-03-10T03:45:01.451Z,989.91
2023-03-10T03:46:02.485Z,989.89
2023-03-10T03:47:02.051Z,989.93
2023-03-10T03:48:01.163Z,989.81
2023-03-10T03:49:00.718Z,989.79
2023-03-10T03:50:00.430Z,989.76
2023-03-10T03:51:00.146Z,989.7
2023-03-10T03:51:59.817Z,989.71
2023-03-10T03:53:01.481Z,989.66
2023-03-10T03:54:01.327Z,989.66
2023-03-10T03:55:02.339Z,989.63
2023-03-10T03:56:02.292Z,989.62
2023-03-10T03:57:01.096Z,989.58
2023-03-10T03:58:01.059Z,989.6
2023-03-10T03:59:01.173Z,989.52
2023-03-10T04:00:01.135Z,989.5
2023-03-10T04:01:01.116Z,989.51
2023-03-10T04:02:01.186Z,989.46
2023-03-10T04:03:01.513Z,989.43
2023-03-10T04:04:01.139Z,989.4
2023-03-10T04:05:01.947Z,989.38
2023-03-10T04:06:01.546Z,989.36
2023-03-10T04:07:01.227Z,989.38
2023-03-10T04:08:01.992Z,989.33
2023-03-10T04:09:01.263Z,989.37
2023-03-10T04:10:01.342Z,989.35
2023-03-10T04:11:02.018Z,989.32
2023-03-10T04:12:01.824Z,989.25
2023-03-10T04:13:01.110Z,989.27
2023-03-10T04:14:00.741Z,989.21
2023-03-10T04:15:00.338Z,989.23
2023-03-10T04:16:00.061Z,989.25
2023-03-10T04:16:59.667Z,989.18
2023-03-10T04:18:01.343Z,989.16
2023-03-10T04:19:01.573Z,989.2
2023-03-10T04:20:07.422Z,989.13
2023-03-10T04:21:02.197Z,989.12
2023-03-10T04:22:01.148Z,989.1
2023-03-10T04:23:04.225Z,989.12
2023-03-10T04:24:01.323Z,989.11
2023-03-10T04:25:00.975Z,989.1
2023-03-10T04:26:01.113Z,989.07
2023-03-10T04:27:01.101Z,989.08
2023-03-10T04:28:05.877Z,989.01
2023-03-10T04:29:01.131Z,988.98
2023-03-10T04:30:01.111Z,989.06
2023-03-10T04:31:01.175Z,988.99
2023-03-10T04:32:05.493Z,989.04
2023-03-10T04:33:09.993Z,988.96
2023-03-10T04:34:03.959Z,989
2023-03-10T04:35:01.154Z,988.96
2023-03-10T04:36:01.200Z,988.91
2023-03-10T04:37:01.394Z,988.91
2023-03-10T04:38:11.920Z,988.87
2023-03-10T04:39:02.147Z,988.86
2023-03-10T04:40:01.168Z,988.89
2023-03-10T04:41:01.787Z,988.84
2023-03-10T04:42:01.093Z,988.83
2023-03-10T04:43:14.546Z,988.81
2023-03-10T04:44:01.088Z,988.78
2023-03-10T04:45:01.467Z,988.8
2023-03-10T04:46:01.114Z,988.78
2023-03-10T04:47:01.048Z,988.81
2023-03-10T04:48:01.110Z,988.79
2023-03-10T04:49:01.146Z,988.78
2023-03-10T04:50:01.124Z,988.8
2023-03-10T04:51:01.137Z,988.8
2023-03-10T04:52:01.547Z,988.78
2023-03-10T04:53:01.138Z,988.77
2023-03-10T04:54:01.149Z,988.74
2023-03-10T04:55:01.844Z,988.76
2023-03-10T04:56:01.152Z,988.75
2023-03-10T04:57:01.124Z,988.79
2023-03-10T04:58:01.078Z,988.77
2023-03-10T04:59:01.087Z,988.75
2023-03-10T05:00:03.304Z,988.73
2023-03-10T05:01:03.514Z,988.74
2023-03-10T05:02:00.775Z,988.7
2023-03-10T05:03:00.506Z,988.7
2023-03-10T05:04:00.182Z,988.74
2023-03-10T05:05:00.376Z,988.72
2023-03-10T05:05:59.932Z,988.71
2023-03-10T05:06:59.543Z,988.64
2023-03-10T05:08:01.172Z,988.7
2023-03-10T05:09:01.328Z,988.64
2023-03-10T05:10:02.509Z,988.64
2023-03-10T05:11:02.050Z,988.6
2023-03-10T05:12:01.453Z,988.6
2023-03-10T05:13:01.211Z,988.67
2023-03-10T05:14:01.494Z,988.59
2023-03-10T05:15:01.293Z,988.6
2023-03-10T05:16:02.621Z,988.57
2023-03-10T05:17:01.042Z,988.52
2023-03-10T05:18:01.090Z,988.6
2023-03-10T05:19:01.058Z,988.54
2023-03-10T05:20:01.130Z,988.56
2023-03-10T05:21:01.114Z,988.5
2023-03-10T05:22:01.217Z,988.5
2023-03-10T05:23:00.922Z,988.49
2023-03-10T05:24:01.136Z,988.52
2023-03-10T05:25:01.132Z,988.5
2023-03-10T05:26:01.061Z,988.55
2023-03-10T05:27:01.060Z,988.53
2023-03-10T05:28:01.200Z,988.52
2023-03-10T05:29:01.172Z,988.53
2023-03-10T05:30:01.167Z,988.55
2023-03-10T05:31:01.959Z,988.5
2023-03-10T05:32:01.471Z,988.45
2023-03-10T05:33:01.187Z,988.48
2023-03-10T05:34:01.810Z,988.42
2023-03-10T05:35:01.116Z,988.52
2023-03-10T05:36:01.144Z,988.43
2023-03-10T05:37:01.237Z,988.44
2023-03-10T05:38:01.118Z,988.45
2023-03-10T05:39:01.149Z,988.43
2023-03-10T05:40:01.188Z,988.43
2023-03-10T05:41:01.459Z,988.41
2023-03-10T05:42:00.930Z,988.44
2023-03-10T05:43:00.739Z,988.39
2023-03-10T05:44:00.441Z,988.39
2023-03-10T05:45:00.157Z,988.35
2023-03-10T05:45:59.917Z,988.27
2023-03-10T05:46:59.764Z,988.27
2023-03-10T05:48:01.752Z,988.27
2023-03-10T05:49:01.757Z,988.3
2023-03-10T05:50:01.264Z,988.25
2023-03-10T05:51:01.250Z,988.23
2023-03-10T05:52:01.881Z,988.24
2023-03-10T05:53:01.112Z,988.26
2023-03-10T05:54:01.230Z,988.22
2023-03-10T05:55:01.127Z,988.25
2023-03-10T05:56:01.138Z,988.21
2023-03-10T05:57:01.165Z,988.24
2023-03-10T05:58:01.163Z,988.22
2023-03-10T05:59:00.858Z,988.25
2023-03-10T06:00:01.455Z,988.18
2023-03-10T06:01:01.271Z,988.23
2023-03-10T06:02:01.057Z,988.19
2023-03-10T06:03:01.148Z,988.2
2023-03-10T06:04:03.184Z,988.24
2023-03-10T06:05:01.843Z,988.19
2023-03-10T06:06:01.126Z,988.19
2023-03-10T06:07:01.089Z,988.25
2023-03-10T06:08:01.111Z,988.21
2023-03-10T06:09:06.426Z,988.24
2023-03-10T06:10:02.221Z,988.27
2023-03-10T06:11:02.346Z,988.26
2023-03-10T06:12:02.040Z,988.24
2023-03-10T06:13:02.042Z,988.17
2023-03-10T06:14:08.937Z,988.23
2023-03-10T06:15:01.182Z,988.19
2023-03-10T06:16:01.249Z,988.19
2023-03-10T06:17:01.347Z,988.16
2023-03-10T06:18:01.707Z,988.22
2023-03-10T06:19:10.897Z,988.21
2023-03-10T06:20:01.470Z,988.22
2023-03-10T06:21:01.570Z,988.2
2023-03-10T06:22:01.139Z,988.25
2023-03-10T06:23:01.092Z,988.23
2023-03-10T06:24:13.780Z,988.21
2023-03-10T06:25:01.055Z,988.21
2023-03-10T06:26:01.100Z,988.2
2023-03-10T06:27:01.157Z,988.21
2023-03-10T06:28:01.138Z,988.21
2023-03-10T06:29:16.173Z,988.2
2023-03-10T06:30:01.959Z,988.18
2023-03-10T06:31:02.095Z,988.22
2023-03-10T06:32:01.707Z,988.21
2023-03-10T06:33:01.265Z,988.18
2023-03-10T06:34:04.233Z,988.17
2023-03-10T06:35:03.108Z,988.19
2023-03-10T06:36:02.686Z,988.21
2023-03-10T06:37:01.203Z,988.19
2023-03-10T06:38:01.216Z,988.25
2023-03-10T06:39:01.277Z,988.25
2023-03-10T06:40:03.985Z,988.24
2023-03-10T06:41:02.015Z,988.25
2023-03-10T06:42:01.420Z,988.25
2023-03-10T06:43:02.432Z,988.25
2023-03-10T06:44:01.817Z,988.24
2023-03-10T06:45:01.299Z,988.26
2023-03-10T06:46:01.570Z,988.29
2023-03-10T06:47:01.293Z,988.28
2023-03-10T06:48:02.225Z,988.27
2023-03-10T06:49:02.239Z,988.25
2023-03-10T06:50:01.367Z,988.32
2023-03-10T06:51:02.435Z,988.29
2023-03-10T06:52:01.172Z,988.33
2023-03-10T06:53:01.066Z,988.29
2023-03-10T06:54:01.087Z,988.31
2023-03-10T06:55:01.505Z,988.3
2023-03-10T06:56:01.108Z,988.27
2023-03-10T06:57:01.123Z,988.28
2023-03-10T06:58:01.121Z,988.28
2023-03-10T06:59:01.143Z,988.24
2023-03-10T07:00:01.129Z,988.28
2023-03-10T07:01:01.219Z,988.28
2023-03-10T07:02:01.139Z,988.28
2023-03-10T07:03:01.411Z,988.25
2023-03-10T07:04:01.463Z,988.22
2023-03-10T07:05:03.010Z,988.23
2023-03-10T07:06:01.238Z,988.24
2023-03-10T07:07:01.169Z,988.22
2023-03-10T07:08:01.070Z,988.2
2023-03-10T07:09:01.108Z,988.21
2023-03-10T07:10:01.775Z,988.18
2023-03-10T07:11:01.086Z,988.22
2023-03-10T07:12:01.506Z,988.24
2023-03-10T07:13:01.210Z,988.22
2023-03-10T07:14:01.106Z,988.27
2023-03-10T07:15:01.857Z,988.19
2023-03-10T07:16:02.033Z,988.27
2023-03-10T07:17:01.203Z,988.2
2023-03-10T07:18:01.132Z,988.21
2023-03-10T07:19:01.138Z,988.27
2023-03-10T07:20:01.140Z,988.28
2023-03-10T07:21:01.485Z,988.3
2023-03-10T07:22:01.511Z,988.3
2023-03-10T07:23:01.256Z,988.29
2023-03-10T07:24:01.984Z,988.33
2023-03-10T07:25:02.898Z,988.34
2023-03-10T07:26:01.068Z,988.33
2023-03-10T07:27:01.081Z,988.33
2023-03-10T07:28:01.544Z,988.36
2023-03-10T07:29:01.115Z,988.38
2023-03-10T07:30:01.129Z,988.37
2023-03-10T07:31:01.148Z,988.36
2023-03-10T07:32:01.110Z,988.34
2023-03-10T07:33:01.266Z,988.35
2023-03-10T07:34:01.271Z,988.33
2023-03-10T07:35:01.179Z,988.36
2023-03-10T07:36:01.221Z,988.3
2023-03-10T07:37:01.142Z,988.33
2023-03-10T07:38:01.143Z,988.37
2023-03-10T07:39:01.047Z,988.43
2023-03-10T07:40:00.759Z,988.39
2023-03-10T07:41:02.030Z,988.32
2023-03-10T07:42:01.451Z,988.3
2023-03-10T07:43:00.899Z,988.37
2023-03-10T07:44:00.584Z,988.35
2023-03-10T07:45:00.787Z,988.32
2023-03-10T07:46:00.583Z,988.41
2023-03-10T07:47:00.283Z,988.34
2023-03-10T07:47:59.950Z,988.33
2023-03-10T07:48:59.567Z,988.33
2023-03-10T07:50:01.387Z,988.3
2023-03-10T07:51:04.582Z,988.3
2023-03-10T07:52:01.134Z,988.34
2023-03-10T07:53:02.029Z,988.35
2023-03-10T07:54:00.833Z,988.37
2023-03-10T07:55:04.531Z,988.35
2023-03-10T07:56:01.501Z,988.31
2023-03-10T07:57:01.168Z,988.33
2023-03-10T07:58:01.069Z,988.34
2023-03-10T07:59:01.487Z,988.35
2023-03-10T08:00:07.609Z,988.35
2023-03-10T08:01:01.864Z,988.36
2023-03-10T08:02:02.022Z,988.36
2023-03-10T08:03:01.295Z,988.32
2023-03-10T08:04:01.273Z,988.35
2023-03-10T08:05:10.489Z,988.34
2023-03-10T08:06:04.684Z,988.38
2023-03-10T08:07:01.445Z,988.35
2023-03-10T08:08:01.604Z,988.35
2023-03-10T08:09:01.262Z,988.33
2023-03-10T08:10:12.844Z,988.34
2023-03-10T08:11:02.871Z,988.35
2023-03-10T08:12:01.180Z,988.32
2023-03-10T08:13:01.063Z,988.33
2023-03-10T08:14:01.243Z,988.27
2023-03-10T08:15:16.211Z,988.33
2023-03-10T08:16:02.162Z,988.35
2023-03-10T08:17:01.208Z,988.35
2023-03-10T08:18:01.095Z,988.3
2023-03-10T08:19:01.115Z,988.31
2023-03-10T08:20:01.114Z,988.3
2023-03-10T08:21:01.116Z,988.3
2023-03-10T08:22:01.126Z,988.28
2023-03-10T08:23:01.541Z,988.28
2023-03-10T08:24:01.129Z,988.28
2023-03-10T08:25:01.146Z,988.28
2023-03-10T08:26:01.433Z,988.32
2023-03-10T08:27:01.149Z,988.35
2023-03-10T08:28:01.157Z,988.3
2023-03-10T08:29:01.164Z,988.31
2023-03-10T08:30:01.072Z,988.33
2023-03-10T08:31:05.321Z,988.37
2023-03-10T08:32:01.243Z,988.35
2023-03-10T08:33:01.232Z,988.35
2023-03-10T08:34:01.090Z,988.32
2023-03-10T08:35:01.113Z,988.37
2023-03-10T08:36:01.262Z,988.43
2023-03-10T08:37:01.118Z,988.42
2023-03-10T08:38:01.110Z,988.38
2023-03-10T08:39:01.146Z,988.36
2023-03-10T08:40:01.859Z,988.43
2023-03-10T08:41:01.444Z,988.37
2023-03-10T08:42:01.293Z,988.35
2023-03-10T08:43:01.523Z,988.39
2023-03-10T08:44:01.145Z,988.39
2023-03-10T08:45:02.008Z,988.39
2023-03-10T08:46:01.163Z,988.39
2023-03-10T08:47:01.249Z,988.39
2023-03-10T08:48:01.783Z,988.37
2023-03-10T08:49:02.621Z,988.42
2023-03-10T08:50:01.526Z,988.37
2023-03-10T08:51:01.498Z,988.4
2023-03-10T08:52:01.215Z,988.38
2023-03-10T08:53:01.235Z,988.4
2023-03-10T08:54:01.129Z,988.4
2023-03-10T08:55:01.144Z,988.37
2023-03-10T08:56:01.132Z,988.37
2023-03-10T08:57:01.137Z,988.36
2023-03-10T08:58:01.148Z,988.35
2023-03-10T08:59:01.184Z,988.36
2023-03-10T09:00:01.207Z,988.33
2023-03-10T09:01:01.285Z,988.29
2023-03-10T09:02:02.250Z,988.32
2023-03-10T09:03:01.117Z,988.34
2023-03-10T09:04:00.874Z,988.3
2023-03-10T09:05:01.091Z,988.32
2023-03-10T09:06:01.060Z,988.34
2023-03-10T09:07:01.102Z,988.31
2023-03-10T09:08:01.082Z,988.37
2023-03-10T09:09:01.139Z,988.36
2023-03-10T09:10:01.129Z,988.37
2023-03-10T09:11:01.057Z,988.31
2023-03-10T09:12:01.514Z,988.35
2023-03-10T09:13:13.363Z,988.3
2023-03-10T09:14:01.571Z,988.33
2023-03-10T09:15:01.152Z,988.37
2023-03-10T09:16:01.203Z,988.41
2023-03-10T09:17:01.432Z,988.35
2023-03-10T09:18:01.995Z,988.37
2023-03-10T09:19:01.095Z,988.34
2023-03-10T09:20:01.113Z,988.38
2023-03-10T09:21:01.466Z,988.35
2023-03-10T09:22:04.216Z,988.35
2023-03-10T09:23:01.090Z,988.32
2023-03-10T09:24:00.768Z,988.33
2023-03-10T09:25:01.450Z,988.37
2023-03-10T09:26:02.120Z,988.34
2023-03-10T09:27:01.116Z,988.37
2023-03-10T09:28:01.125Z,988.36
2023-03-10T09:29:01.124Z,988.37
2023-03-10T09:30:01.639Z,988.34
2023-03-10T09:31:02.205Z,988.32
2023-03-10T09:32:01.172Z,988.41
2023-03-10T09:33:02.757Z,988.4
2023-03-10T09:34:01.457Z,988.43
2023-03-10T09:35:01.827Z,988.42
2023-03-10T09:36:08.431Z,988.37
2023-03-10T09:37:01.053Z,988.39
2023-03-10T09:38:01.085Z,988.44
2023-03-10T09:39:01.239Z,988.49
2023-03-10T09:40:01.271Z,988.43
2023-03-10T09:41:01.805Z,988.44
2023-03-10T09:42:01.131Z,988.41
2023-03-10T09:43:01.180Z,988.44
2023-03-10T09:44:00.907Z,988.44
2023-03-10T09:45:01.139Z,988.42
2023-03-10T09:46:05.041Z,988.43
2023-03-10T09:47:01.338Z,988.44
2023-03-10T09:48:03.197Z,988.46
2023-03-10T09:49:02.188Z,988.46
2023-03-10T09:50:01.281Z,988.5
2023-03-10T09:51:08.453Z,988.49
2023-03-10T09:52:01.066Z,988.57
2023-03-10T09:53:01.109Z,988.53
2023-03-10T09:54:01.289Z,988.56
2023-03-10T09:55:01.454Z,988.53
2023-03-10T09:56:13.091Z,988.52
2023-03-10T09:57:02.030Z,988.52
2023-03-10T09:58:03.878Z,988.57
2023-03-10T09:59:01.143Z,988.52
2023-03-10T10:00:01.123Z,988.55
2023-03-10T10:01:16.671Z,988.56
2023-03-10T10:02:02.589Z,988.56
2023-03-10T10:03:01.525Z,988.58
2023-03-10T10:04:02.525Z,988.53
2023-03-10T10:05:03.774Z,988.52
2023-03-10T10:06:01.565Z,988.56
2023-03-10T10:07:01.079Z,988.6
2023-03-10T10:08:01.359Z,988.55
2023-03-10T10:09:05.095Z,988.58
2023-03-10T10:10:01.481Z,988.57
2023-03-10T10:11:01.817Z,988.53
2023-03-10T10:12:01.782Z,988.48
2023-03-10T10:13:02.443Z,988.55
2023-03-10T10:14:01.779Z,988.5
2023-03-10T10:15:01.181Z,988.54
2023-03-10T10:16:21.258Z,988.5
2023-03-10T10:17:02.121Z,988.5
2023-03-10T10:18:12.083Z,988.49
2023-03-10T10:19:01.976Z,988.49
2023-03-10T10:20:01.240Z,988.49
2023-03-10T10:21:01.150Z,988.49
2023-03-10T10:22:01.166Z,988.46
2023-03-10T10:23:01.408Z,988.46
2023-03-10T10:24:00.868Z,988.49
2023-03-10T10:25:01.192Z,988.54
2023-03-10T10:26:02.674Z,988.49
2023-03-10T10:27:01.098Z,988.48
2023-03-10T10:28:01.446Z,988.41
2023-03-10T10:29:01.109Z,988.48
2023-03-10T10:30:01.146Z,988.51
2023-03-10T10:31:02.116Z,988.48
2023-03-10T10:32:01.531Z,988.41
2023-03-10T10:33:02.044Z,988.43
2023-03-10T10:34:01.351Z,988.4
2023-03-10T10:35:01.078Z,988.51
2023-03-10T10:36:01.135Z,988.42
2023-03-10T10:37:02.200Z,988.43
2023-03-10T10:38:01.168Z,988.47
2023-03-10T10:39:03.964Z,988.49
2023-03-10T10:40:01.455Z,988.52
2023-03-10T10:41:01.489Z,988.48
2023-03-10T10:42:02.265Z,988.5
2023-03-10T10:43:02.316Z,988.43
2023-03-10T10:44:02.006Z,988.43
2023-03-10T10:45:01.316Z,988.47
2023-03-10T10:46:02.248Z,988.47
2023-03-10T10:47:01.118Z,988.41
2023-03-10T10:48:01.128Z,988.39
2023-03-10T10:49:01.367Z,988.42
2023-03-10T10:50:01.283Z,988.4
2023-03-10T10:51:01.138Z,988.46
2023-03-10T10:52:01.167Z,988.38
2023-03-10T10:53:01.156Z,988.35
2023-03-10T10:54:01.167Z,988.36
2023-03-10T10:55:01.194Z,988.38
2023-03-10T10:56:01.091Z,988.32
2023-03-10T10:57:01.099Z,988.42
2023-03-10T10:58:01.893Z,988.4
2023-03-10T10:59:01.086Z,988.4
2023-03-10T11:00:01.084Z,988.4
2023-03-10T11:01:01.245Z,988.34
2023-03-10T11:02:01.354Z,988.32
2023-03-10T11:03:01.128Z,988.41
2023-03-10T11:04:01.150Z,988.38
2023-03-10T11:05:01.432Z,988.29
2023-03-10T11:06:02.587Z,988.36
2023-03-10T11:07:01.520Z,988.37
2023-03-10T11:08:01.154Z,988.36
2023-03-10T11:09:01.098Z,988.33
2023-03-10T11:10:01.092Z,988.34
2023-03-10T11:11:01.123Z,988.24
2023-03-10T11:12:01.272Z,988.23
2023-03-10T11:13:01.870Z,988.33
2023-03-10T11:14:01.550Z,988.29
2023-03-10T11:15:00.624Z,988.29
2023-03-10T11:16:00.718Z,988.29
2023-03-10T11:17:01.781Z,988.31
2023-03-10T11:18:01.128Z,988.26
2023-03-10T11:19:01.140Z,988.23
2023-03-10T11:20:01.247Z,988.28
2023-03-10T11:21:01.956Z,988.26
2023-03-10T11:22:05.836Z,988.31
2023-03-10T11:23:01.460Z,988.3
2023-03-10T11:24:01.958Z,988.18
2023-03-10T11:25:01.168Z,988.17
2023-03-10T11:26:01.177Z,988.12
2023-03-10T11:27:08.616Z,988.16
2023-03-10T11:28:01.164Z,988.14
2023-03-10T11:29:01.187Z,988.22
2023-03-10T11:30:01.164Z,988.15
2023-03-10T11:31:02.057Z,988.14
2023-03-10T11:32:11.225Z,988.17
2023-03-10T11:33:02.509Z,988.19
2023-03-10T11:34:01.099Z,988.14
2023-03-10T11:35:01.147Z,988.14
2023-03-10T11:36:01.407Z,988.15
2023-03-10T11:37:13.557Z,988.15
2023-03-10T11:38:02.674Z,988.17
2023-03-10T11:39:01.139Z,988.1
2023-03-10T11:40:01.157Z,988.17
2023-03-10T11:41:01.154Z,988.08
2023-03-10T11:42:15.894Z,988.15
2023-03-10T11:43:01.514Z,988.2
2023-03-10T11:44:01.556Z,988.14
2023-03-10T11:45:01.249Z,988.17
2023-03-10T11:46:02.324Z,988.08
2023-03-10T11:47:02.066Z,988.12
2023-03-10T11:48:01.115Z,988.12
2023-03-10T11:49:01.110Z,988.13
2023-03-10T11:50:01.078Z,988.12
2023-03-10T11:51:01.083Z,988.08
2023-03-10T11:52:01.727Z,988.14
2023-03-10T11:53:01.533Z,988.18
2023-03-10T11:54:01.240Z,988.16
2023-03-10T11:55:03.953Z,988.12
2023-03-10T11:56:01.891Z,988.15
2023-03-10T11:57:00.990Z,988.18
2023-03-10T11:58:01.162Z,988.2
2023-03-10T11:59:01.180Z,988.23
2023-03-10T12:00:01.189Z,988.22
2023-03-10T12:01:02.535Z,988.19
2023-03-10T12:02:01.452Z,988.24
2023-03-10T12:03:01.148Z,988.18
2023-03-10T12:04:00.994Z,988.17
2023-03-10T12:05:01.173Z,988.13
2023-03-10T12:06:01.110Z,988.21
2023-03-10T12:07:01.119Z,988.15
2023-03-10T12:08:01.121Z,988.14
2023-03-10T12:09:01.509Z,988.12
2023-03-10T12:10:01.326Z,988.15
2023-03-10T12:11:02.190Z,988.08
2023-03-10T12:12:01.132Z,988.13
2023-03-10T12:13:01.143Z,988.14
2023-03-10T12:14:01.174Z,988.08
2023-03-10T12:15:01.210Z,988.07
2023-03-10T12:16:01.474Z,988.01
2023-03-10T12:17:01.414Z,987.98
2023-03-10T12:18:01.121Z,988
2023-03-10T12:19:01.085Z,987.97
2023-03-10T12:20:01.205Z,987.98
2023-03-10T12:21:01.091Z,988
2023-03-10T12:22:01.102Z,987.97
2023-03-10T12:23:01.113Z,987.95
2023-03-10T12:24:00.798Z,987.99
2023-03-10T12:25:00.405Z,987.95
2023-03-10T12:25:59.991Z,988.02
2023-03-10T12:26:59.834Z,987.97
2023-03-10T12:28:01.517Z,987.96
2023-03-10T12:29:01.718Z,987.94
2023-03-10T12:30:01.873Z,987.91
2023-03-10T12:31:01.589Z,987.96